sensor_id;sensor_type;location;lat;lon;timestamp;P1;durP1;ratioP1;P2;durP2;ratioP2
53907;SDS011;40469;47.998;7.794;2022-08-19T00:01:39;12.50;;;8.60;;
53907;SDS011;40469;47.998;7.794;2022-08-19T00:04:07;10.95;;;7.57;;
53907;SDS011;40469;47.998;7.794;2022-08-19T00:06:35;13.13;;;8.18;;
53907;SDS011;40469;47.998;7.794;2022-08-19T00:09:02;12.20;;;7.65;;
53907;SDS011;40469;47.998;7.794;2022-08-19T00:11:31;12.13;;;8.00;;
53907;SDS011;40469;47.998;7.794;2022-08-19T00:13:57;11.90;;;7.95;;
53907;SDS011;40469;47.998;7.794;2022-08-19T00:16:22;14.30;;;8.25;;
53907;SDS011;40469;47.998;7.794;2022-08-19T00:18:49;14.25;;;8.07;;
53907;SDS011;40469;47.998;7.794;2022-08-19T00:21:15;11.10;;;7.60;;
53907;SDS011;40469;47.998;7.794;2022-08-19T00:23:41;11.80;;;7.68;;
53907;SDS011;40469;47.998;7.794;2022-08-19T00:26:08;11.10;;;8.38;;
53907;SDS011;40469;47.998;7.794;2022-08-19T00:28:34;10.77;;;6.85;;
53907;SDS011;40469;47.998;7.794;2022-08-19T00:31:01;11.10;;;7.95;;
53907;SDS011;40469;47.998;7.794;2022-08-19T00:33:30;12.75;;;7.75;;
53907;SDS011;40469;47.998;7.794;2022-08-19T00:36:03;12.40;;;7.65;;
53907;SDS011;40469;47.998;7.794;2022-08-19T00:38:31;11.95;;;7.88;;
53907;SDS011;40469;47.998;7.794;2022-08-19T00:40:57;11.57;;;8.13;;
53907;SDS011;40469;47.998;7.794;2022-08-19T00:43:24;13.30;;;8.60;;
53907;SDS011;40469;47.998;7.794;2022-08-19T00:45:51;14.18;;;8.98;;
53907;SDS011;40469;47.998;7.794;2022-08-19T00:48:17;14.13;;;9.60;;
53907;SDS011;40469;47.998;7.794;2022-08-19T00:50:43;14.93;;;9.65;;
53907;SDS011;40469;47.998;7.794;2022-08-19T00:53:13;15.38;;;9.20;;
53907;SDS011;40469;47.998;7.794;2022-08-19T00:55:43;16.95;;;9.30;;
53907;SDS011;40469;47.998;7.794;2022-08-19T00:58:12;13.88;;;9.32;;
53907;SDS011;40469;47.998;7.794;2022-08-19T01:00:41;14.85;;;9.65;;
53907;SDS011;40469;47.998;7.794;2022-08-19T01:03:07;14.70;;;9.98;;
53907;SDS011;40469;47.998;7.794;2022-08-19T01:05:35;17.13;;;10.23;;
53907;SDS011;40469;47.998;7.794;2022-08-19T01:08:03;17.13;;;11.07;;
53907;SDS011;40469;47.998;7.794;2022-08-19T01:10:32;17.33;;;11.07;;
53907;SDS011;40469;47.998;7.794;2022-08-19T01:13:01;17.08;;;10.85;;
53907;SDS011;40469;47.998;7.794;2022-08-19T01:15:31;19.35;;;11.48;;
53907;SDS011;40469;47.998;7.794;2022-08-19T01:18:04;19.25;;;12.88;;
53907;SDS011;40469;47.998;7.794;2022-08-19T01:20:32;23.67;;;14.00;;
53907;SDS011;40469;47.998;7.794;2022-08-19T01:22:59;23.05;;;13.85;;
53907;SDS011;40469;47.998;7.794;2022-08-19T01:25:27;22.05;;;14.10;;
53907;SDS011;40469;47.998;7.794;2022-08-19T01:27:56;23.50;;;14.75;;
53907;SDS011;40469;47.998;7.794;2022-08-19T01:30:24;25.10;;;15.52;;
53907;SDS011;40469;47.998;7.794;2022-08-19T01:32:52;25.08;;;15.68;;
53907;SDS011;40469;47.998;7.794;2022-08-19T01:35:18;24.65;;;15.32;;
53907;SDS011;40469;47.998;7.794;2022-08-19T01:37:48;25.15;;;16.02;;
53907;SDS011;40469;47.998;7.794;2022-08-19T01:40:19;22.23;;;14.13;;
53907;SDS011;40469;47.998;7.794;2022-08-19T01:42:47;23.13;;;13.98;;
53907;SDS011;40469;47.998;7.794;2022-08-19T01:45:14;19.52;;;12.25;;
53907;SDS011;40469;47.998;7.794;2022-08-19T01:47:39;15.70;;;10.27;;
53907;SDS011;40469;47.998;7.794;2022-08-19T01:50:05;17.52;;;10.13;;
53907;SDS011;40469;47.998;7.794;2022-08-19T01:52:35;13.02;;;8.95;;
53907;SDS011;40469;47.998;7.794;2022-08-19T01:55:01;12.18;;;8.90;;
53907;SDS011;40469;47.998;7.794;2022-08-19T01:57:26;14.13;;;9.90;;
53907;SDS011;40469;47.998;7.794;2022-08-19T01:59:52;14.65;;;10.32;;
53907;SDS011;40469;47.998;7.794;2022-08-19T02:02:18;13.35;;;9.60;;
53907;SDS011;40469;47.998;7.794;2022-08-19T02:04:43;15.55;;;9.80;;
53907;SDS011;40469;47.998;7.794;2022-08-19T02:07:10;15.57;;;10.65;;
53907;SDS011;40469;47.998;7.794;2022-08-19T02:09:36;19.23;;;10.15;;
53907;SDS011;40469;47.998;7.794;2022-08-19T02:12:01;16.17;;;11.32;;
53907;SDS011;40469;47.998;7.794;2022-08-19T02:14:27;16.63;;;11.32;;
53907;SDS011;40469;47.998;7.794;2022-08-19T02:16:53;15.85;;;11.13;;
53907;SDS011;40469;47.998;7.794;2022-08-19T02:19:18;16.45;;;11.63;;
53907;SDS011;40469;47.998;7.794;2022-08-19T02:21:43;20.35;;;11.68;;
53907;SDS011;40469;47.998;7.794;2022-08-19T02:24:09;15.50;;;11.05;;
53907;SDS011;40469;47.998;7.794;2022-08-19T02:26:35;16.55;;;10.85;;
53907;SDS011;40469;47.998;7.794;2022-08-19T02:29:00;14.80;;;10.55;;
53907;SDS011;40469;47.998;7.794;2022-08-19T02:31:26;14.43;;;10.25;;
53907;SDS011;40469;47.998;7.794;2022-08-19T02:33:53;13.75;;;9.65;;
53907;SDS011;40469;47.998;7.794;2022-08-19T02:36:20;16.42;;;10.48;;
53907;SDS011;40469;47.998;7.794;2022-08-19T02:38:46;13.93;;;9.45;;
53907;SDS011;40469;47.998;7.794;2022-08-19T02:41:16;17.48;;;10.40;;
53907;SDS011;40469;47.998;7.794;2022-08-19T02:43:43;19.20;;;10.77;;
53907;SDS011;40469;47.998;7.794;2022-08-19T02:46:16;14.82;;;10.35;;
53907;SDS011;40469;47.998;7.794;2022-08-19T02:48:55;17.15;;;10.13;;
53907;SDS011;40469;47.998;7.794;2022-08-19T02:51:26;14.35;;;10.35;;
53907;SDS011;40469;47.998;7.794;2022-08-19T02:53:53;14.57;;;9.93;;
53907;SDS011;40469;47.998;7.794;2022-08-19T02:56:21;15.00;;;9.80;;
53907;SDS011;40469;47.998;7.794;2022-08-19T02:58:47;14.77;;;10.23;;
53907;SDS011;40469;47.998;7.794;2022-08-19T03:01:46;17.00;;;10.48;;
53907;SDS011;40469;47.998;7.794;2022-08-19T03:04:06;14.57;;;10.65;;
53907;SDS011;40469;47.998;7.794;2022-08-19T03:06:37;15.88;;;10.38;;
53907;SDS011;40469;47.998;7.794;2022-08-19T03:09:10;14.40;;;9.73;;
53907;SDS011;40469;47.998;7.794;2022-08-19T03:11:36;17.35;;;10.60;;
53907;SDS011;40469;47.998;7.794;2022-08-19T03:14:02;16.35;;;10.23;;
53907;SDS011;40469;47.998;7.794;2022-08-19T03:16:32;16.35;;;10.93;;
53907;SDS011;40469;47.998;7.794;2022-08-19T03:19:05;15.85;;;10.75;;
53907;SDS011;40469;47.998;7.794;2022-08-19T03:21:31;16.50;;;10.25;;
53907;SDS011;40469;47.998;7.794;2022-08-19T03:23:58;15.38;;;10.00;;
53907;SDS011;40469;47.998;7.794;2022-08-19T03:26:26;17.38;;;10.75;;
53907;SDS011;40469;47.998;7.794;2022-08-19T03:28:52;14.15;;;9.88;;
53907;SDS011;40469;47.998;7.794;2022-08-19T03:31:18;18.95;;;10.90;;
53907;SDS011;40469;47.998;7.794;2022-08-19T03:33:46;21.83;;;10.50;;
53907;SDS011;40469;47.998;7.794;2022-08-19T03:36:13;19.33;;;10.52;;
53907;SDS011;40469;47.998;7.794;2022-08-19T03:38:43;14.27;;;10.48;;
53907;SDS011;40469;47.998;7.794;2022-08-19T03:41:15;18.00;;;11.65;;
53907;SDS011;40469;47.998;7.794;2022-08-19T03:43:43;17.35;;;10.75;;
53907;SDS011;40469;47.998;7.794;2022-08-19T03:46:13;15.23;;;10.35;;
53907;SDS011;40469;47.998;7.794;2022-08-19T03:48:41;14.32;;;8.88;;
53907;SDS011;40469;47.998;7.794;2022-08-19T03:51:14;15.73;;;9.90;;
53907;SDS011;40469;47.998;7.794;2022-08-19T03:53:45;15.70;;;10.38;;
53907;SDS011;40469;47.998;7.794;2022-08-19T03:56:10;16.65;;;9.98;;
53907;SDS011;40469;47.998;7.794;2022-08-19T03:58:37;15.35;;;10.45;;
53907;SDS011;40469;47.998;7.794;2022-08-19T04:01:07;13.65;;;9.82;;
53907;SDS011;40469;47.998;7.794;2022-08-19T04:03:35;15.95;;;10.30;;
53907;SDS011;40469;47.998;7.794;2022-08-19T04:06:13;16.35;;;10.45;;
53907;SDS011;40469;47.998;7.794;2022-08-19T04:08:41;16.15;;;10.20;;
53907;SDS011;40469;47.998;7.794;2022-08-19T04:11:09;16.95;;;10.60;;
53907;SDS011;40469;47.998;7.794;2022-08-19T04:13:35;18.27;;;12.05;;
53907;SDS011;40469;47.998;7.794;2022-08-19T04:16:01;19.80;;;10.55;;
53907;SDS011;40469;47.998;7.794;2022-08-19T04:18:26;20.65;;;11.40;;
53907;SDS011;40469;47.998;7.794;2022-08-19T04:20:54;17.33;;;11.52;;
53907;SDS011;40469;47.998;7.794;2022-08-19T04:23:20;18.52;;;11.57;;
53907;SDS011;40469;47.998;7.794;2022-08-19T04:25:45;22.83;;;11.32;;
53907;SDS011;40469;47.998;7.794;2022-08-19T04:28:11;19.85;;;11.02;;
53907;SDS011;40469;47.998;7.794;2022-08-19T04:30:42;17.27;;;11.77;;
53907;SDS011;40469;47.998;7.794;2022-08-19T04:33:09;16.42;;;10.98;;
53907;SDS011;40469;47.998;7.794;2022-08-19T04:35:37;19.63;;;12.77;;
53907;SDS011;40469;47.998;7.794;2022-08-19T04:38:04;20.25;;;11.82;;
53907;SDS011;40469;47.998;7.794;2022-08-19T04:40:29;17.25;;;11.43;;
53907;SDS011;40469;47.998;7.794;2022-08-19T04:43:14;17.05;;;11.35;;
53907;SDS011;40469;47.998;7.794;2022-08-19T04:45:41;18.65;;;12.27;;
53907;SDS011;40469;47.998;7.794;2022-08-19T04:48:08;17.60;;;12.05;;
53907;SDS011;40469;47.998;7.794;2022-08-19T04:50:34;20.60;;;12.80;;
53907;SDS011;40469;47.998;7.794;2022-08-19T04:53:00;19.50;;;12.60;;
53907;SDS011;40469;47.998;7.794;2022-08-19T04:55:26;20.48;;;12.18;;
53907;SDS011;40469;47.998;7.794;2022-08-19T04:57:51;19.02;;;12.90;;
53907;SDS011;40469;47.998;7.794;2022-08-19T05:00:17;19.45;;;13.45;;
53907;SDS011;40469;47.998;7.794;2022-08-19T05:02:42;18.42;;;11.90;;
53907;SDS011;40469;47.998;7.794;2022-08-19T05:05:08;19.30;;;11.88;;
53907;SDS011;40469;47.998;7.794;2022-08-19T05:07:33;19.30;;;12.20;;
53907;SDS011;40469;47.998;7.794;2022-08-19T05:09:59;19.50;;;12.13;;
53907;SDS011;40469;47.998;7.794;2022-08-19T05:12:25;15.13;;;10.95;;
53907;SDS011;40469;47.998;7.794;2022-08-19T05:14:52;17.92;;;12.13;;
53907;SDS011;40469;47.998;7.794;2022-08-19T05:17:17;22.55;;;11.48;;
53907;SDS011;40469;47.998;7.794;2022-08-19T05:19:43;18.10;;;11.43;;
53907;SDS011;40469;47.998;7.794;2022-08-19T05:22:27;18.15;;;12.07;;
53907;SDS011;40469;47.998;7.794;2022-08-19T05:25:11;19.75;;;12.07;;
53907;SDS011;40469;47.998;7.794;2022-08-19T05:27:38;20.58;;;11.43;;
53907;SDS011;40469;47.998;7.794;2022-08-19T05:30:04;15.63;;;10.35;;
53907;SDS011;40469;47.998;7.794;2022-08-19T05:32:30;17.05;;;10.75;;
53907;SDS011;40469;47.998;7.794;2022-08-19T05:34:56;17.42;;;10.75;;
53907;SDS011;40469;47.998;7.794;2022-08-19T05:37:21;15.35;;;10.45;;
53907;SDS011;40469;47.998;7.794;2022-08-19T05:39:47;15.43;;;9.55;;
53907;SDS011;40469;47.998;7.794;2022-08-19T05:42:13;16.75;;;9.43;;
53907;SDS011;40469;47.998;7.794;2022-08-19T05:44:40;15.27;;;9.70;;
53907;SDS011;40469;47.998;7.794;2022-08-19T05:47:10;12.43;;;9.27;;
53907;SDS011;40469;47.998;7.794;2022-08-19T05:49:37;12.32;;;9.27;;
53907;SDS011;40469;47.998;7.794;2022-08-19T05:52:04;12.60;;;9.30;;
53907;SDS011;40469;47.998;7.794;2022-08-19T05:54:31;12.60;;;9.07;;
53907;SDS011;40469;47.998;7.794;2022-08-19T05:56:57;14.18;;;9.45;;
53907;SDS011;40469;47.998;7.794;2022-08-19T05:59:22;13.35;;;9.13;;
53907;SDS011;40469;47.998;7.794;2022-08-19T06:01:48;13.88;;;9.75;;
53907;SDS011;40469;47.998;7.794;2022-08-19T06:04:16;17.63;;;10.52;;
53907;SDS011;40469;47.998;7.794;2022-08-19T06:06:45;13.63;;;9.85;;
53907;SDS011;40469;47.998;7.794;2022-08-19T06:09:11;16.58;;;9.13;;
53907;SDS011;40469;47.998;7.794;2022-08-19T06:11:39;12.32;;;8.27;;
53907;SDS011;40469;47.998;7.794;2022-08-19T06:14:10;13.95;;;8.57;;
53907;SDS011;40469;47.998;7.794;2022-08-19T06:16:38;12.15;;;8.65;;
53907;SDS011;40469;47.998;7.794;2022-08-19T06:19:07;11.57;;;8.38;;
53907;SDS011;40469;47.998;7.794;2022-08-19T06:21:35;13.38;;;9.48;;
53907;SDS011;40469;47.998;7.794;2022-08-19T06:24:04;12.82;;;8.98;;
53907;SDS011;40469;47.998;7.794;2022-08-19T06:26:31;11.35;;;8.45;;
53907;SDS011;40469;47.998;7.794;2022-08-19T06:28:56;12.63;;;8.35;;
53907;SDS011;40469;47.998;7.794;2022-08-19T06:31:24;12.38;;;8.43;;
53907;SDS011;40469;47.998;7.794;2022-08-19T06:33:51;11.27;;;8.40;;
53907;SDS011;40469;47.998;7.794;2022-08-19T06:36:17;12.15;;;8.77;;
53907;SDS011;40469;47.998;7.794;2022-08-19T06:38:58;13.02;;;8.32;;
53907;SDS011;40469;47.998;7.794;2022-08-19T06:41:25;11.20;;;7.70;;
53907;SDS011;40469;47.998;7.794;2022-08-19T06:43:51;13.68;;;8.20;;
53907;SDS011;40469;47.998;7.794;2022-08-19T06:46:17;12.57;;;7.72;;
53907;SDS011;40469;47.998;7.794;2022-08-19T06:48:44;10.55;;;8.10;;
53907;SDS011;40469;47.998;7.794;2022-08-19T06:51:10;13.00;;;7.57;;
53907;SDS011;40469;47.998;7.794;2022-08-19T06:53:36;12.23;;;7.90;;
53907;SDS011;40469;47.998;7.794;2022-08-19T06:56:04;10.52;;;7.80;;
53907;SDS011;40469;47.998;7.794;2022-08-19T06:58:29;12.23;;;7.72;;
53907;SDS011;40469;47.998;7.794;2022-08-19T07:01:02;12.65;;;8.32;;
53907;SDS011;40469;47.998;7.794;2022-08-19T07:03:29;13.38;;;7.93;;
53907;SDS011;40469;47.998;7.794;2022-08-19T07:06:06;13.27;;;8.23;;
53907;SDS011;40469;47.998;7.794;2022-08-19T07:08:34;13.03;;;9.00;;
53907;SDS011;40469;47.998;7.794;2022-08-19T07:11:01;12.77;;;9.32;;
53907;SDS011;40469;47.998;7.794;2022-08-19T07:13:27;11.98;;;8.52;;
53907;SDS011;40469;47.998;7.794;2022-08-19T07:15:52;12.50;;;8.43;;
53907;SDS011;40469;47.998;7.794;2022-08-19T07:18:18;12.93;;;7.95;;
53907;SDS011;40469;47.998;7.794;2022-08-19T07:20:45;13.65;;;8.52;;
53907;SDS011;40469;47.998;7.794;2022-08-19T07:23:11;12.18;;;8.50;;
53907;SDS011;40469;47.998;7.794;2022-08-19T07:25:37;10.57;;;7.30;;
53907;SDS011;40469;47.998;7.794;2022-08-19T07:28:03;11.68;;;8.35;;
53907;SDS011;40469;47.998;7.794;2022-08-19T07:30:29;11.75;;;8.25;;
53907;SDS011;40469;47.998;7.794;2022-08-19T07:32:55;11.55;;;7.60;;
53907;SDS011;40469;47.998;7.794;2022-08-19T07:35:21;12.35;;;8.80;;
53907;SDS011;40469;47.998;7.794;2022-08-19T07:37:48;13.85;;;8.48;;
53907;SDS011;40469;47.998;7.794;2022-08-19T07:40:14;12.55;;;8.20;;
53907;SDS011;40469;47.998;7.794;2022-08-19T07:42:39;11.88;;;8.43;;
53907;SDS011;40469;47.998;7.794;2022-08-19T07:45:05;14.95;;;8.73;;
53907;SDS011;40469;47.998;7.794;2022-08-19T07:47:32;13.95;;;8.77;;
53907;SDS011;40469;47.998;7.794;2022-08-19T07:49:57;12.93;;;8.40;;
53907;SDS011;40469;47.998;7.794;2022-08-19T07:52:23;12.95;;;8.00;;
53907;SDS011;40469;47.998;7.794;2022-08-19T07:54:48;14.65;;;9.35;;
53907;SDS011;40469;47.998;7.794;2022-08-19T07:57:14;15.13;;;9.35;;
53907;SDS011;40469;47.998;7.794;2022-08-19T07:59:41;13.07;;;9.50;;
53907;SDS011;40469;47.998;7.794;2022-08-19T08:02:06;15.00;;;9.43;;
53907;SDS011;40469;47.998;7.794;2022-08-19T08:04:33;13.65;;;9.07;;
53907;SDS011;40469;47.998;7.794;2022-08-19T08:07:17;16.08;;;9.75;;
53907;SDS011;40469;47.998;7.794;2022-08-19T08:10:03;16.10;;;9.27;;
53907;SDS011;40469;47.998;7.794;2022-08-19T08:12:32;13.43;;;9.80;;
53907;SDS011;40469;47.998;7.794;2022-08-19T08:15:01;15.50;;;9.50;;
53907;SDS011;40469;47.998;7.794;2022-08-19T08:17:30;18.55;;;11.18;;
53907;SDS011;40469;47.998;7.794;2022-08-19T08:19:57;13.07;;;9.57;;
53907;SDS011;40469;47.998;7.794;2022-08-19T08:22:23;16.52;;;10.35;;
53907;SDS011;40469;47.998;7.794;2022-08-19T08:25:12;15.80;;;10.30;;
53907;SDS011;40469;47.998;7.794;2022-08-19T08:27:41;18.35;;;10.27;;
53907;SDS011;40469;47.998;7.794;2022-08-19T08:30:09;21.88;;;10.13;;
53907;SDS011;40469;47.998;7.794;2022-08-19T08:32:37;17.60;;;10.85;;
53907;SDS011;40469;47.998;7.794;2022-08-19T08:35:08;17.60;;;11.48;;
53907;SDS011;40469;47.998;7.794;2022-08-19T08:37:36;17.98;;;11.20;;
53907;SDS011;40469;47.998;7.794;2022-08-19T08:40:07;16.63;;;11.23;;
53907;SDS011;40469;47.998;7.794;2022-08-19T08:42:43;17.35;;;11.43;;
53907;SDS011;40469;47.998;7.794;2022-08-19T08:45:16;16.08;;;11.10;;
53907;SDS011;40469;47.998;7.794;2022-08-19T08:47:44;19.02;;;12.05;;
53907;SDS011;40469;47.998;7.794;2022-08-19T08:50:22;18.02;;;11.05;;
53907;SDS011;40469;47.998;7.794;2022-08-19T08:53:06;20.30;;;12.55;;
53907;SDS011;40469;47.998;7.794;2022-08-19T08:55:36;20.85;;;12.80;;
53907;SDS011;40469;47.998;7.794;2022-08-19T09:01:22;25.20;;;14.80;;
53907;SDS011;40469;47.998;7.794;2022-08-19T09:03:48;18.98;;;12.43;;
53907;SDS011;40469;47.998;7.794;2022-08-19T09:06:32;18.52;;;12.48;;
53907;SDS011;40469;47.998;7.794;2022-08-19T09:11:32;18.02;;;12.65;;
53907;SDS011;40469;47.998;7.794;2022-08-19T09:16:52;18.20;;;12.60;;
53907;SDS011;40469;47.998;7.794;2022-08-19T09:19:18;22.10;;;14.85;;
53907;SDS011;40469;47.998;7.794;2022-08-19T09:21:43;19.13;;;12.25;;
53907;SDS011;40469;47.998;7.794;2022-08-19T09:24:10;19.13;;;12.45;;
53907;SDS011;40469;47.998;7.794;2022-08-19T09:26:35;20.23;;;12.98;;
53907;SDS011;40469;47.998;7.794;2022-08-19T09:29:01;18.45;;;12.57;;
53907;SDS011;40469;47.998;7.794;2022-08-19T09:31:30;21.15;;;12.68;;
53907;SDS011;40469;47.998;7.794;2022-08-19T09:33:57;23.67;;;13.85;;
53907;SDS011;40469;47.998;7.794;2022-08-19T09:36:23;20.58;;;13.55;;
53907;SDS011;40469;47.998;7.794;2022-08-19T09:38:51;21.58;;;13.27;;
53907;SDS011;40469;47.998;7.794;2022-08-19T09:41:18;17.23;;;12.55;;
53907;SDS011;40469;47.998;7.794;2022-08-19T09:43:46;20.27;;;12.25;;
53907;SDS011;40469;47.998;7.794;2022-08-19T09:46:14;25.23;;;14.38;;
53907;SDS011;40469;47.998;7.794;2022-08-19T09:48:41;21.50;;;14.00;;
53907;SDS011;40469;47.998;7.794;2022-08-19T09:51:08;22.63;;;14.23;;
53907;SDS011;40469;47.998;7.794;2022-08-19T09:53:42;22.43;;;14.43;;
53907;SDS011;40469;47.998;7.794;2022-08-19T09:56:09;23.85;;;14.95;;
53907;SDS011;40469;47.998;7.794;2022-08-19T09:58:35;21.92;;;14.65;;
53907;SDS011;40469;47.998;7.794;2022-08-19T10:01:02;20.60;;;14.13;;
53907;SDS011;40469;47.998;7.794;2022-08-19T10:03:30;22.67;;;14.18;;
53907;SDS011;40469;47.998;7.794;2022-08-19T10:05:57;20.02;;;13.45;;
53907;SDS011;40469;47.998;7.794;2022-08-19T10:08:25;20.63;;;13.68;;
53907;SDS011;40469;47.998;7.794;2022-08-19T10:10:53;19.70;;;13.88;;
53907;SDS011;40469;47.998;7.794;2022-08-19T10:13:21;23.30;;;14.85;;
53907;SDS011;40469;47.998;7.794;2022-08-19T10:15:52;19.58;;;12.50;;
53907;SDS011;40469;47.998;7.794;2022-08-19T10:18:19;20.52;;;14.27;;
53907;SDS011;40469;47.998;7.794;2022-08-19T10:20:46;22.88;;;14.52;;
53907;SDS011;40469;47.998;7.794;2022-08-19T10:23:13;21.05;;;13.85;;
53907;SDS011;40469;47.998;7.794;2022-08-19T10:25:40;20.67;;;13.95;;
53907;SDS011;40469;47.998;7.794;2022-08-19T10:28:05;19.98;;;13.77;;
53907;SDS011;40469;47.998;7.794;2022-08-19T10:30:32;21.23;;;13.52;;
53907;SDS011;40469;47.998;7.794;2022-08-19T10:32:57;24.92;;;14.50;;
53907;SDS011;40469;47.998;7.794;2022-08-19T10:35:23;21.38;;;14.05;;
53907;SDS011;40469;47.998;7.794;2022-08-19T10:37:50;20.00;;;13.98;;
53907;SDS011;40469;47.998;7.794;2022-08-19T10:40:15;20.55;;;14.20;;
53907;SDS011;40469;47.998;7.794;2022-08-19T10:42:41;18.77;;;13.25;;
53907;SDS011;40469;47.998;7.794;2022-08-19T10:45:06;21.17;;;12.82;;
53907;SDS011;40469;47.998;7.794;2022-08-19T10:47:34;17.63;;;12.50;;
53907;SDS011;40469;47.998;7.794;2022-08-19T10:49:59;26.05;;;14.63;;
53907;SDS011;40469;47.998;7.794;2022-08-19T10:52:44;21.50;;;13.52;;
53907;SDS011;40469;47.998;7.794;2022-08-19T10:55:12;21.73;;;13.68;;
53907;SDS011;40469;47.998;7.794;2022-08-19T10:57:56;21.42;;;13.77;;
53907;SDS011;40469;47.998;7.794;2022-08-19T11:00:22;22.85;;;14.50;;
53907;SDS011;40469;47.998;7.794;2022-08-19T11:02:48;21.63;;;13.85;;
53907;SDS011;40469;47.998;7.794;2022-08-19T11:05:14;20.55;;;13.40;;
53907;SDS011;40469;47.998;7.794;2022-08-19T11:07:40;17.02;;;12.13;;
53907;SDS011;40469;47.998;7.794;2022-08-19T11:10:06;22.88;;;14.25;;
53907;SDS011;40469;47.998;7.794;2022-08-19T11:12:36;23.05;;;13.68;;
53907;SDS011;40469;47.998;7.794;2022-08-19T11:15:04;19.75;;;13.27;;
53907;SDS011;40469;47.998;7.794;2022-08-19T11:17:33;20.48;;;12.20;;
53907;SDS011;40469;47.998;7.794;2022-08-19T11:19:58;19.50;;;13.80;;
53907;SDS011;40469;47.998;7.794;2022-08-19T11:22:27;18.00;;;12.32;;
53907;SDS011;40469;47.998;7.794;2022-08-19T11:24:52;21.98;;;14.20;;
53907;SDS011;40469;47.998;7.794;2022-08-19T11:27:18;18.25;;;11.85;;
53907;SDS011;40469;47.998;7.794;2022-08-19T11:29:43;20.52;;;13.23;;
53907;SDS011;40469;47.998;7.794;2022-08-19T11:32:09;21.05;;;14.60;;
53907;SDS011;40469;47.998;7.794;2022-08-19T11:34:36;18.65;;;12.70;;
53907;SDS011;40469;47.998;7.794;2022-08-19T11:37:02;20.80;;;13.05;;
53907;SDS011;40469;47.998;7.794;2022-08-19T11:39:29;17.77;;;12.00;;
53907;SDS011;40469;47.998;7.794;2022-08-19T11:41:59;19.13;;;13.90;;
53907;SDS011;40469;47.998;7.794;2022-08-19T11:44:26;24.10;;;15.18;;
53907;SDS011;40469;47.998;7.794;2022-08-19T11:46:55;20.13;;;13.30;;
53907;SDS011;40469;47.998;7.794;2022-08-19T11:49:21;26.30;;;15.27;;
53907;SDS011;40469;47.998;7.794;2022-08-19T11:51:46;24.55;;;15.20;;
53907;SDS011;40469;47.998;7.794;2022-08-19T11:54:15;27.45;;;14.20;;
53907;SDS011;40469;47.998;7.794;2022-08-19T11:56:42;23.08;;;13.32;;
53907;SDS011;40469;47.998;7.794;2022-08-19T11:59:09;20.27;;;12.57;;
53907;SDS011;40469;47.998;7.794;2022-08-19T12:01:35;58.13;;;23.67;;
53907;SDS011;40469;47.998;7.794;2022-08-19T12:04:01;21.33;;;13.95;;
53907;SDS011;40469;47.998;7.794;2022-08-19T12:06:30;20.73;;;13.70;;
53907;SDS011;40469;47.998;7.794;2022-08-19T12:08:58;20.40;;;13.82;;
53907;SDS011;40469;47.998;7.794;2022-08-19T12:11:25;25.67;;;14.52;;
53907;SDS011;40469;47.998;7.794;2022-08-19T12:13:51;29.25;;;15.38;;
53907;SDS011;40469;47.998;7.794;2022-08-19T12:16:18;22.00;;;13.50;;
53907;SDS011;40469;47.998;7.794;2022-08-19T12:18:45;21.25;;;13.00;;
53907;SDS011;40469;47.998;7.794;2022-08-19T12:21:30;23.38;;;12.15;;
53907;SDS011;40469;47.998;7.794;2022-08-19T12:26:23;18.95;;;13.60;;
53907;SDS011;40469;47.998;7.794;2022-08-19T12:28:49;20.67;;;13.35;;
53907;SDS011;40469;47.998;7.794;2022-08-19T12:31:15;24.30;;;12.75;;
53907;SDS011;40469;47.998;7.794;2022-08-19T12:33:41;21.15;;;11.82;;
53907;SDS011;40469;47.998;7.794;2022-08-19T12:36:08;19.63;;;12.48;;
53907;SDS011;40469;47.998;7.794;2022-08-19T12:38:35;15.82;;;11.50;;
53907;SDS011;40469;47.998;7.794;2022-08-19T12:41:02;16.35;;;12.32;;
53907;SDS011;40469;47.998;7.794;2022-08-19T12:43:30;16.63;;;11.13;;
53907;SDS011;40469;47.998;7.794;2022-08-19T12:45:55;16.20;;;12.13;;
53907;SDS011;40469;47.998;7.794;2022-08-19T12:48:21;18.35;;;12.45;;
53907;SDS011;40469;47.998;7.794;2022-08-19T12:50:46;14.98;;;11.82;;
53907;SDS011;40469;47.998;7.794;2022-08-19T12:53:12;21.67;;;13.48;;
53907;SDS011;40469;47.998;7.794;2022-08-19T12:55:38;17.90;;;12.13;;
53907;SDS011;40469;47.998;7.794;2022-08-19T12:58:03;21.40;;;12.57;;
53907;SDS011;40469;47.998;7.794;2022-08-19T13:00:29;16.95;;;12.00;;
53907;SDS011;40469;47.998;7.794;2022-08-19T13:02:55;18.05;;;12.73;;
53907;SDS011;40469;47.998;7.794;2022-08-19T13:05:23;20.67;;;13.65;;
53907;SDS011;40469;47.998;7.794;2022-08-19T13:07:50;16.17;;;11.40;;
53907;SDS011;40469;47.998;7.794;2022-08-19T13:10:18;15.25;;;11.70;;
53907;SDS011;40469;47.998;7.794;2022-08-19T13:12:46;14.00;;;10.60;;
53907;SDS011;40469;47.998;7.794;2022-08-19T13:15:14;16.85;;;11.35;;
53907;SDS011;40469;47.998;7.794;2022-08-19T13:17:46;16.40;;;10.20;;
53907;SDS011;40469;47.998;7.794;2022-08-19T13:20:14;15.05;;;10.90;;
53907;SDS011;40469;47.998;7.794;2022-08-19T13:22:41;15.35;;;10.30;;
53907;SDS011;40469;47.998;7.794;2022-08-19T13:25:07;14.95;;;10.13;;
53907;SDS011;40469;47.998;7.794;2022-08-19T13:27:34;13.00;;;10.63;;
53907;SDS011;40469;47.998;7.794;2022-08-19T13:30:00;14.73;;;10.63;;
53907;SDS011;40469;47.998;7.794;2022-08-19T13:32:44;16.98;;;11.32;;
53907;SDS011;40469;47.998;7.794;2022-08-19T13:35:28;20.73;;;13.13;;
53907;SDS011;40469;47.998;7.794;2022-08-19T13:37:53;13.18;;;10.27;;
53907;SDS011;40469;47.998;7.794;2022-08-19T13:40:20;14.00;;;10.40;;
53907;SDS011;40469;47.998;7.794;2022-08-19T13:42:52;11.40;;;9.43;;
53907;SDS011;40469;47.998;7.794;2022-08-19T13:45:19;11.77;;;9.02;;
53907;SDS011;40469;47.998;7.794;2022-08-19T13:47:48;12.90;;;9.02;;
53907;SDS011;40469;47.998;7.794;2022-08-19T13:50:20;11.27;;;8.43;;
53907;SDS011;40469;47.998;7.794;2022-08-19T13:52:47;10.60;;;8.35;;
53907;SDS011;40469;47.998;7.794;2022-08-19T13:55:14;12.52;;;8.32;;
53907;SDS011;40469;47.998;7.794;2022-08-19T13:57:40;10.20;;;7.63;;
53907;SDS011;40469;47.998;7.794;2022-08-19T14:00:11;8.88;;;7.88;;
53907;SDS011;40469;47.998;7.794;2022-08-19T14:02:39;11.23;;;8.18;;
53907;SDS011;40469;47.998;7.794;2022-08-19T14:05:06;9.13;;;8.18;;
53907;SDS011;40469;47.998;7.794;2022-08-19T14:07:33;12.93;;;9.85;;
53907;SDS011;40469;47.998;7.794;2022-08-19T14:09:59;13.57;;;8.73;;
53907;SDS011;40469;47.998;7.794;2022-08-19T14:12:24;11.93;;;9.75;;
53907;SDS011;40469;47.998;7.794;2022-08-19T14:14:50;13.32;;;9.70;;
53907;SDS011;40469;47.998;7.794;2022-08-19T14:17:15;13.13;;;8.82;;
53907;SDS011;40469;47.998;7.794;2022-08-19T14:19:41;15.50;;;10.70;;
53907;SDS011;40469;47.998;7.794;2022-08-19T14:22:07;15.43;;;10.73;;
53907;SDS011;40469;47.998;7.794;2022-08-19T14:24:33;11.07;;;8.65;;
53907;SDS011;40469;47.998;7.794;2022-08-19T14:26:58;14.32;;;10.68;;
53907;SDS011;40469;47.998;7.794;2022-08-19T14:29:24;12.18;;;9.43;;
53907;SDS011;40469;47.998;7.794;2022-08-19T14:31:50;14.07;;;9.32;;
53907;SDS011;40469;47.998;7.794;2022-08-19T14:34:15;11.18;;;9.45;;
53907;SDS011;40469;47.998;7.794;2022-08-19T14:36:41;14.30;;;10.77;;
53907;SDS011;40469;47.998;7.794;2022-08-19T14:39:06;14.75;;;11.07;;
53907;SDS011;40469;47.998;7.794;2022-08-19T14:41:33;13.32;;;10.50;;